createdAt,value
2022-10-16T00:01:25.162Z,259.95
2022-10-16T00:03:52.595Z,262.40
2022-10-16T00:06:21.893Z,257.20
2022-10-16T00:08:49.454Z,263.02
2022-10-16T00:11:18.630Z,254.60
2022-10-16T00:13:46.587Z,260.20
2022-10-16T00:16:16.309Z,255.82
2022-10-16T00:18:43.355Z,179.00
2022-10-16T00:21:28.656Z,195.63
2022-10-16T00:24:05.411Z,169.43
2022-10-16T00:26:33.847Z,189.50
2022-10-16T00:29:00.759Z,191.13
2022-10-16T00:31:27.902Z,214.27
2022-10-16T00:33:54.795Z,201.40
2022-10-16T00:36:24.750Z,215.70
2022-10-16T00:38:56.384Z,226.30
2022-10-16T00:41:25.571Z,229.05
2022-10-16T00:44:03.107Z,230.00
2022-10-16T00:46:43.083Z,216.35
2022-10-16T00:49:15.795Z,218.50
2022-10-16T00:51:54.792Z,211.40
2022-10-16T00:54:27.170Z,210.73
2022-10-16T00:56:55.573Z,224.20
2022-10-16T00:59:27.211Z,226.65
2022-10-16T01:01:54.995Z,227.98
2022-10-16T01:04:22.900Z,240.63
2022-10-16T01:07:25.707Z,234.93
2022-10-16T01:10:21.538Z,205.32
2022-10-16T01:12:57.079Z,199.98
2022-10-16T01:15:47.845Z,207.07
2022-10-16T01:18:17.371Z,187.90
2022-10-16T01:20:59.432Z,202.40
2022-10-16T01:23:32.971Z,187.65
2022-10-16T01:26:33.088Z,179.05
2022-10-16T01:29:18.723Z,151.80
2022-10-16T01:31:50.911Z,159.48
2022-10-16T01:34:43.114Z,159.20
2022-10-16T01:37:15.693Z,153.18
2022-10-16T01:39:46.442Z,147.32
2022-10-16T01:42:22.478Z,147.00
2022-10-16T01:44:50.307Z,132.50
2022-10-16T01:47:18.691Z,121.47
2022-10-16T01:49:47.008Z,111.97
2022-10-16T01:52:19.321Z,109.85
2022-10-16T01:54:49.167Z,99.05
2022-10-16T01:57:17.667Z,97.95
2022-10-16T01:59:48.475Z,88.35
2022-10-16T02:02:18.482Z,81.80
2022-10-16T02:04:50.648Z,77.85
2022-10-16T02:07:17.639Z,71.13
2022-10-16T02:09:44.644Z,71.55
2022-10-16T02:12:28.226Z,69.32
2022-10-16T02:14:55.132Z,67.30
2022-10-16T02:17:22.462Z,71.25
2022-10-16T02:19:50.755Z,76.13
2022-10-16T02:22:27.786Z,80.05
2022-10-16T02:24:57.545Z,86.35
2022-10-16T02:27:50.769Z,90.07
2022-10-16T02:30:22.919Z,106.70
2022-10-16T02:32:50.374Z,123.65
2022-10-16T02:35:19.626Z,121.88
2022-10-16T02:37:47.930Z,124.20
2022-10-16T02:40:15.591Z,131.45
2022-10-16T02:42:42.509Z,135.23
2022-10-16T02:45:12.066Z,160.98
2022-10-16T02:47:39.123Z,164.20
2022-10-16T02:50:06.291Z,164.10
2022-10-16T02:52:32.815Z,167.43
2022-10-16T02:54:59.283Z,169.68
2022-10-16T02:57:26.060Z,176.23
2022-10-16T02:59:52.968Z,181.82
2022-10-16T03:02:19.651Z,185.82
2022-10-16T03:04:46.134Z,184.50
2022-10-16T03:07:12.669Z,190.70
2022-10-16T03:09:39.165Z,196.70
2022-10-16T03:12:05.919Z,196.50
2022-10-16T03:14:32.507Z,199.40
2022-10-16T03:16:59.019Z,214.75
2022-10-16T03:19:25.537Z,210.52
2022-10-16T03:21:52.086Z,208.65
2022-10-16T03:24:18.564Z,207.40
2022-10-16T03:26:45.077Z,203.73
2022-10-16T03:29:11.578Z,203.57
2022-10-16T03:31:38.234Z,199.70
2022-10-16T03:34:04.715Z,197.27
2022-10-16T03:36:31.229Z,199.27
2022-10-16T03:38:57.825Z,195.82
2022-10-16T03:41:24.355Z,198.40
2022-10-16T03:43:50.848Z,195.95
2022-10-16T03:46:17.336Z,190.50
2022-10-16T03:48:43.884Z,192.07
2022-10-16T03:51:10.507Z,188.43
2022-10-16T03:53:37.095Z,188.25
2022-10-16T03:56:03.599Z,188.30
2022-10-16T03:58:30.133Z,184.05
2022-10-16T04:00:56.675Z,182.88
2022-10-16T04:03:24.016Z,177.35
2022-10-16T04:05:50.934Z,175.38
2022-10-16T04:08:17.641Z,181.30
2022-10-16T04:10:44.821Z,172.82
2022-10-16T04:13:11.932Z,166.32
2022-10-16T04:15:39.123Z,158.93
2022-10-16T04:18:06.722Z,159.13
2022-10-16T04:20:34.095Z,162.02
2022-10-16T04:23:00.602Z,157.73
2022-10-16T04:25:27.086Z,159.00
2022-10-16T04:27:54.686Z,152.88
2022-10-16T04:30:22.152Z,158.77
2022-10-16T04:32:52.907Z,153.48
2022-10-16T04:35:20.765Z,155.65
2022-10-16T04:37:47.501Z,153.68
2022-10-16T04:40:14.751Z,145.27
2022-10-16T04:42:41.744Z,139.27
2022-10-16T04:45:11.999Z,145.50
2022-10-16T04:47:41.616Z,137.38
2022-10-16T04:50:08.917Z,140.43
2022-10-16T04:55:07.656Z,144.65
2022-10-16T04:57:34.439Z,147.77
2022-10-16T05:00:01.169Z,144.50
2022-10-16T05:02:27.767Z,145.90
2022-10-16T05:04:54.411Z,141.98
2022-10-16T05:07:20.899Z,142.90
2022-10-16T05:09:47.417Z,140.90
2022-10-16T05:12:13.978Z,139.55
2022-10-16T05:14:40.509Z,144.18
2022-10-16T05:17:07.155Z,145.65
2022-10-16T05:19:33.683Z,144.35
2022-10-16T05:22:00.241Z,145.95
2022-10-16T05:24:27.217Z,146.00
2022-10-16T05:26:54.064Z,141.75
2022-10-16T05:29:20.820Z,142.07
2022-10-16T05:31:47.311Z,140.40
2022-10-16T05:34:13.822Z,146.43
2022-10-16T05:36:40.303Z,150.82
2022-10-16T05:39:06.818Z,148.85
2022-10-16T05:41:33.327Z,151.50
2022-10-16T05:43:59.840Z,149.45
2022-10-16T05:46:26.311Z,156.05
2022-10-16T05:48:54.291Z,174.15
2022-10-16T05:51:20.825Z,158.38
2022-10-16T05:53:47.474Z,167.20
2022-10-16T05:56:14.147Z,157.07
2022-10-16T05:58:45.544Z,155.25
2022-10-16T06:01:18.127Z,150.15
2022-10-16T06:03:45.258Z,155.23
2022-10-16T06:06:14.243Z,146.10
2022-10-16T06:08:42.264Z,138.88
2022-10-16T06:11:11.742Z,151.45
2022-10-16T06:13:39.844Z,149.90
2022-10-16T06:16:06.917Z,159.43
2022-10-16T06:18:33.398Z,160.25
2022-10-16T06:21:00.085Z,165.65
2022-10-16T06:23:29.556Z,175.05
2022-10-16T06:26:05.471Z,177.77
2022-10-16T06:28:32.188Z,186.45
2022-10-16T06:31:07.296Z,198.02
2022-10-16T06:33:35.786Z,203.18
2022-10-16T06:36:06.735Z,218.88
2022-10-16T06:38:33.683Z,223.48
2022-10-16T06:41:00.274Z,240.43
2022-10-16T06:43:27.419Z,246.75
2022-10-16T06:45:55.087Z,255.80
2022-10-16T06:48:22.108Z,264.00
2022-10-16T06:51:10.291Z,263.05
2022-10-16T06:53:48.911Z,266.67
2022-10-16T06:56:27.355Z,258.90
2022-10-16T06:58:54.762Z,262.10
2022-10-16T07:01:24.193Z,434.23
2022-10-16T07:03:51.361Z,272.17
2022-10-16T07:06:21.212Z,260.70
2022-10-16T07:08:48.502Z,262.48
2022-10-16T07:11:17.922Z,256.50
2022-10-16T07:13:49.302Z,250.85
2022-10-16T07:16:22.255Z,246.30
2022-10-16T07:18:50.198Z,235.27
2022-10-16T07:21:24.046Z,242.70
2022-10-16T07:23:54.958Z,242.50
2022-10-16T07:26:22.320Z,286.13
2022-10-16T07:28:49.380Z,258.92
2022-10-16T07:31:17.742Z,226.05
2022-10-16T07:33:46.153Z,234.00
2022-10-16T07:36:16.264Z,255.75
2022-10-16T07:38:43.901Z,227.02
2022-10-16T07:41:13.176Z,222.13
2022-10-16T07:43:40.016Z,226.95
2022-10-16T07:46:06.791Z,206.00
2022-10-16T07:48:35.012Z,204.18
2022-10-16T07:51:03.439Z,195.77
2022-10-16T07:53:30.152Z,178.80
2022-10-16T07:56:04.058Z,134.48
2022-10-16T07:58:31.335Z,98.20
2022-10-16T08:00:58.592Z,86.43
2022-10-16T08:03:25.790Z,62.38
2022-10-16T08:05:52.572Z,41.42
2022-10-16T08:08:19.907Z,42.17
2022-10-16T08:10:46.705Z,41.78
2022-10-16T08:13:16.065Z,59.92
2022-10-16T08:15:44.210Z,87.45
2022-10-16T08:18:12.231Z,132.90
2022-10-16T08:20:40.987Z,147.45
2022-10-16T08:23:07.837Z,132.30
2022-10-16T08:25:38.317Z,130.55
2022-10-16T08:28:09.326Z,139.52
2022-10-16T08:30:36.325Z,178.75
2022-10-16T08:33:03.555Z,205.93
2022-10-16T08:35:30.146Z,218.75
2022-10-16T08:37:56.861Z,205.68
2022-10-16T08:40:28.574Z,98.40
2022-10-16T08:43:19.503Z,107.30
2022-10-16T08:46:04.725Z,110.50
2022-10-16T08:49:01.334Z,99.97
2022-10-16T08:51:32.064Z,93.65
2022-10-16T08:54:27.701Z,88.40
2022-10-16T08:57:01.691Z,74.38
2022-10-16T08:59:28.204Z,64.10
2022-10-16T09:01:54.755Z,56.83
2022-10-16T09:04:46.158Z,57.08
2022-10-16T09:07:31.394Z,53.35
2022-10-16T09:10:12.723Z,52.65
2022-10-16T09:13:04.645Z,48.75
2022-10-16T09:15:42.730Z,57.25
2022-10-16T09:18:28.583Z,55.88
2022-10-16T09:21:24.222Z,51.25
2022-10-16T09:23:51.523Z,53.30
2022-10-16T09:26:20.727Z,51.90
2022-10-16T09:28:47.335Z,50.10
2022-10-16T09:31:19.853Z,48.58
2022-10-16T09:33:53.659Z,38.75
2022-10-16T09:36:21.336Z,38.28
2022-10-16T09:38:47.826Z,33.17
2022-10-16T09:41:17.438Z,27.58
2022-10-16T09:43:46.768Z,24.05
2022-10-16T09:46:29.091Z,20.77
2022-10-16T09:49:01.543Z,24.00
2022-10-16T09:51:33.810Z,22.77
2022-10-16T09:54:02.901Z,20.63
2022-10-16T09:56:33.599Z,21.95
2022-10-16T09:59:21.754Z,20.55
2022-10-16T10:01:51.838Z,19.70
2022-10-16T10:04:22.069Z,19.35
2022-10-16T10:06:50.038Z,21.58
2022-10-16T10:09:25.185Z,19.83
2022-10-16T10:11:59.211Z,20.83
2022-10-16T10:17:10.354Z,28.60
2022-10-16T10:19:46.834Z,25.83
2022-10-16T10:22:24.764Z,27.35
2022-10-16T10:25:02.884Z,23.55
2022-10-16T10:28:10.591Z,19.13
2022-10-16T10:30:58.993Z,15.93
2022-10-16T10:33:37.730Z,17.02
2022-10-16T10:36:16.322Z,22.77
2022-10-16T10:39:03.976Z,25.30
2022-10-16T10:41:31.504Z,19.48
2022-10-16T10:44:16.216Z,24.13
2022-10-16T10:46:58.094Z,17.38
2022-10-16T10:49:37.551Z,15.65
2022-10-16T10:52:25.910Z,17.65
2022-10-16T10:54:58.706Z,14.80
2022-10-16T10:57:53.056Z,13.70
2022-10-16T11:00:51.415Z,15.10
2022-10-16T11:03:23.856Z,14.00
2022-10-16T11:06:28.151Z,16.27
2022-10-16T11:11:43.402Z,17.05
2022-10-16T11:14:20.999Z,14.75
2022-10-16T11:16:58.271Z,10.75
2022-10-16T11:19:42.000Z,13.27
2022-10-16T11:22:25.767Z,11.00
2022-10-16T11:25:00.701Z,11.93
2022-10-16T11:27:35.944Z,11.63
2022-10-16T11:30:07.801Z,11.38
2022-10-16T11:32:49.874Z,10.40
2022-10-16T11:35:25.439Z,10.52
2022-10-16T11:37:57.515Z,13.15
2022-10-16T11:40:32.407Z,13.95
2022-10-16T11:43:35.813Z,14.10
2022-10-16T11:46:11.952Z,11.90
2022-10-16T11:48:48.478Z,16.77
2022-10-16T11:51:26.135Z,14.27
2022-10-16T11:54:24.785Z,12.27
2022-10-16T11:56:58.641Z,10.38
2022-10-16T11:59:25.064Z,11.20
2022-10-16T12:02:08.525Z,12.35
2022-10-16T12:04:46.444Z,11.30
2022-10-16T12:07:37.479Z,12.95
2022-10-16T12:10:27.610Z,13.63
2022-10-16T12:12:54.999Z,15.40
2022-10-16T12:15:47.370Z,15.57
2022-10-16T12:18:25.275Z,13.05
2022-10-16T12:21:07.073Z,12.10
2022-10-16T12:23:49.317Z,14.27
2022-10-16T12:26:25.590Z,12.65
2022-10-16T12:28:52.888Z,11.98
2022-10-16T12:31:19.550Z,12.32
2022-10-16T12:34:02.057Z,12.13
2022-10-16T12:36:32.112Z,12.17
2022-10-16T12:38:59.971Z,12.75
2022-10-16T12:41:33.671Z,12.90
2022-10-16T12:44:03.756Z,12.80
2022-10-16T12:46:30.215Z,13.40
2022-10-16T12:49:15.011Z,13.00
2022-10-16T12:51:43.132Z,12.65
2022-10-16T12:54:23.903Z,12.48
2022-10-16T12:57:05.664Z,12.13
2022-10-16T12:59:48.018Z,12.75
2022-10-16T13:02:32.507Z,13.70
2022-10-16T13:05:10.101Z,13.05
2022-10-16T13:07:44.715Z,12.48
2022-10-16T13:10:20.458Z,13.23
2022-10-16T13:13:16.195Z,12.50
2022-10-16T13:15:57.833Z,12.52
2022-10-16T13:19:11.955Z,12.45
2022-10-16T13:24:10.756Z,13.00
2022-10-16T13:26:43.974Z,12.73
2022-10-16T13:29:11.034Z,11.82
2022-10-16T13:31:40.546Z,12.95
2022-10-16T13:34:12.554Z,11.82
2022-10-16T13:36:51.313Z,11.73
2022-10-16T13:39:26.653Z,12.45
2022-10-16T13:42:08.978Z,12.73
2022-10-16T13:44:55.435Z,12.32
2022-10-16T13:47:25.049Z,12.27
2022-10-16T13:50:07.619Z,11.77
2022-10-16T13:52:34.453Z,12.45
2022-10-16T13:55:02.306Z,12.10
2022-10-16T13:57:29.532Z,13.63
2022-10-16T13:59:56.249Z,12.65
2022-10-16T14:02:36.795Z,13.77
2022-10-16T14:05:05.449Z,14.35
2022-10-16T14:07:35.099Z,13.85
2022-10-16T14:10:06.317Z,14.15
2022-10-16T14:12:33.619Z,13.57
2022-10-16T14:15:01.776Z,12.57
2022-10-16T14:17:33.563Z,12.77
2022-10-16T14:20:06.172Z,12.73
2022-10-16T14:25:27.544Z,12.73
2022-10-16T14:28:16.884Z,11.50
2022-10-16T14:31:25.560Z,12.43
2022-10-16T14:33:52.129Z,11.55
2022-10-16T14:36:20.406Z,11.30
2022-10-16T14:39:16.937Z,10.93
2022-10-16T14:41:47.172Z,11.30
2022-10-16T14:44:14.266Z,11.85
2022-10-16T14:46:43.558Z,11.40
2022-10-16T14:49:10.115Z,11.10
2022-10-16T14:51:38.151Z,11.82
2022-10-16T14:54:05.551Z,12.65
2022-10-16T14:56:44.775Z,13.10
2022-10-16T14:59:25.978Z,12.60
2022-10-16T15:01:52.954Z,12.43
2022-10-16T15:04:19.717Z,12.18
2022-10-16T15:06:46.218Z,12.35
2022-10-16T15:09:12.882Z,11.95
2022-10-16T15:11:39.711Z,12.25
2022-10-16T15:14:06.408Z,11.63
2022-10-16T15:16:33.045Z,12.25
2022-10-16T15:18:59.567Z,12.63
2022-10-16T15:21:29.215Z,12.35
2022-10-16T15:23:57.455Z,14.05
2022-10-16T15:26:25.855Z,14.82
2022-10-16T15:28:52.537Z,16.98
2022-10-16T15:31:19.318Z,16.00
2022-10-16T15:33:52.402Z,17.77
2022-10-16T15:36:18.936Z,18.67
2022-10-16T15:38:46.431Z,20.23
2022-10-16T15:41:12.909Z,21.42
2022-10-16T15:43:39.378Z,23.48
2022-10-16T15:46:09.470Z,26.00
2022-10-16T15:48:36.044Z,27.33
2022-10-16T15:51:06.562Z,29.95
2022-10-16T15:53:33.103Z,30.98
2022-10-16T15:56:03.179Z,32.05
2022-10-16T15:58:30.989Z,32.80
2022-10-16T16:01:01.676Z,33.88
2022-10-16T16:03:29.531Z,30.77
2022-10-16T16:05:56.358Z,27.42
2022-10-16T16:08:22.999Z,26.73
2022-10-16T16:11:03.647Z,25.73
2022-10-16T16:13:30.212Z,24.38
2022-10-16T16:15:56.998Z,22.73
2022-10-16T16:18:24.834Z,22.40
2022-10-16T16:20:52.382Z,22.50
2022-10-16T16:23:20.134Z,20.40
2022-10-16T16:25:46.663Z,21.58
2022-10-16T16:28:15.331Z,19.92
2022-10-16T16:30:42.225Z,19.40
2022-10-16T16:33:08.780Z,20.38
2022-10-16T16:35:35.266Z,19.35
2022-10-16T16:38:01.762Z,18.48
2022-10-16T16:40:28.475Z,18.30
2022-10-16T16:42:54.968Z,18.73
2022-10-16T16:45:21.504Z,20.15
2022-10-16T16:47:48.022Z,19.48
2022-10-16T16:50:14.520Z,20.00
2022-10-16T16:52:41.074Z,25.25
2022-10-16T16:55:08.033Z,27.80
2022-10-16T16:57:34.565Z,33.88
2022-10-16T17:00:01.057Z,43.67
2022-10-16T17:02:27.554Z,61.30
2022-10-16T17:04:54.312Z,72.55
2022-10-16T17:07:24.218Z,83.80
2022-10-16T17:09:51.212Z,100.78
2022-10-16T17:12:17.721Z,112.78
2022-10-16T17:14:44.352Z,124.68
2022-10-16T17:17:10.984Z,136.82
2022-10-16T17:19:37.490Z,135.73
2022-10-16T17:24:35.634Z,120.18
2022-10-16T17:27:02.194Z,112.43
2022-10-16T17:29:28.710Z,115.30
2022-10-16T17:31:56.759Z,100.43
2022-10-16T17:34:23.251Z,90.97
2022-10-16T17:36:49.775Z,68.57
2022-10-16T17:39:20.152Z,51.25
2022-10-16T17:41:48.270Z,41.17
2022-10-16T17:44:19.986Z,36.80
2022-10-16T17:46:52.436Z,33.65
2022-10-16T17:49:19.554Z,28.05
2022-10-16T17:51:46.215Z,30.23
2022-10-16T17:54:14.588Z,32.47
2022-10-16T17:56:41.300Z,32.28
2022-10-16T17:59:07.917Z,29.77
2022-10-16T18:01:37.098Z,27.08
2022-10-16T18:04:07.323Z,23.98
2022-10-16T18:06:34.540Z,24.80
2022-10-16T18:09:02.775Z,24.45
2022-10-16T18:11:30.371Z,28.67
2022-10-16T18:13:59.172Z,33.35
2022-10-16T18:16:27.082Z,35.85
2022-10-16T18:18:55.255Z,41.75
2022-10-16T18:21:21.868Z,46.58
2022-10-16T18:23:52.212Z,57.85
2022-10-16T18:26:20.441Z,62.72
2022-10-16T18:28:47.375Z,73.35
2022-10-16T18:31:16.283Z,85.93
2022-10-16T18:33:48.127Z,94.53
2022-10-16T18:36:15.915Z,105.38
2022-10-16T18:38:42.577Z,116.25
2022-10-16T18:41:09.326Z,124.93
2022-10-16T18:43:37.550Z,127.53
2022-10-16T18:46:06.839Z,125.35
2022-10-16T18:48:34.800Z,130.10
2022-10-16T18:51:19.163Z,131.52
2022-10-16T18:53:48.366Z,125.55
2022-10-16T18:56:16.497Z,130.40
2022-10-16T18:58:44.711Z,127.15
2022-10-16T19:01:16.322Z,124.57
2022-10-16T19:03:43.526Z,124.22
2022-10-16T19:06:13.346Z,123.75
2022-10-16T19:08:40.845Z,121.25
2022-10-16T19:11:16.666Z,117.80
2022-10-16T19:13:43.987Z,112.70
2022-10-16T19:16:20.317Z,114.57
2022-10-16T19:18:48.473Z,107.50
2022-10-16T19:21:15.960Z,110.45
2022-10-16T19:23:42.875Z,113.00
2022-10-16T19:26:12.990Z,113.47
2022-10-16T19:28:40.643Z,110.90
2022-10-16T19:31:13.100Z,110.05
2022-10-16T19:33:40.618Z,107.57
2022-10-16T19:36:18.549Z,110.45
2022-10-16T19:38:46.681Z,109.28
2022-10-16T19:41:15.614Z,111.35
2022-10-16T19:43:43.101Z,109.68
2022-10-16T19:46:21.897Z,109.43
2022-10-16T19:48:48.979Z,134.25
2022-10-16T19:51:18.867Z,108.32
2022-10-16T19:53:47.141Z,110.03
2022-10-16T19:56:16.854Z,114.15
2022-10-16T19:58:44.848Z,112.25
2022-10-16T20:01:13.009Z,115.18
2022-10-16T20:03:40.386Z,113.82
2022-10-16T20:06:08.671Z,114.43
2022-10-16T20:08:37.071Z,120.57
2022-10-16T20:11:05.125Z,129.68
2022-10-16T20:13:32.678Z,135.02
2022-10-16T20:15:59.307Z,144.38
2022-10-16T20:18:25.937Z,144.23
2022-10-16T20:20:52.679Z,139.60
2022-10-16T20:23:19.591Z,139.80
2022-10-16T20:25:46.765Z,136.50
2022-10-16T20:28:16.050Z,132.50
2022-10-16T20:30:44.974Z,135.50
2022-10-16T20:33:12.407Z,132.30
2022-10-16T20:35:44.297Z,123.07
2022-10-16T20:38:12.125Z,120.32
2022-10-16T20:40:41.605Z,114.07
2022-10-16T20:43:14.470Z,115.40
2022-10-16T20:45:41.242Z,108.60
2022-10-16T20:48:08.811Z,102.95
2022-10-16T20:50:35.287Z,94.43
2022-10-16T20:53:01.825Z,92.80
2022-10-16T20:55:28.521Z,85.22
2022-10-16T20:57:56.024Z,82.95
2022-10-16T21:00:22.906Z,70.45
2022-10-16T21:02:52.807Z,67.50
2022-10-16T21:05:19.394Z,62.55
2022-10-16T21:07:46.450Z,64.10
2022-10-16T21:10:13.091Z,59.17
2022-10-16T21:12:39.635Z,56.60
2022-10-16T21:15:14.910Z,57.65
2022-10-16T21:17:41.955Z,57.20
2022-10-16T21:20:08.841Z,55.03
2022-10-16T21:22:35.545Z,57.83
2022-10-16T21:25:02.099Z,58.75
2022-10-16T21:27:28.642Z,61.25
2022-10-16T21:29:55.172Z,65.95
2022-10-16T21:32:22.188Z,82.60
2022-10-16T21:34:48.769Z,111.15
2022-10-16T21:37:15.258Z,103.38
2022-10-16T21:39:41.767Z,99.18
2022-10-16T21:42:08.407Z,100.20
2022-10-16T21:44:35.060Z,113.88
2022-10-16T21:47:01.544Z,112.28
2022-10-16T21:49:28.211Z,114.28
2022-10-16T21:51:54.719Z,110.43
2022-10-16T21:54:25.043Z,126.40
2022-10-16T21:56:52.979Z,141.10
2022-10-16T21:59:19.867Z,149.05
2022-10-16T22:01:46.588Z,162.90
2022-10-16T22:04:15.054Z,180.45
2022-10-16T22:06:42.206Z,189.43
2022-10-16T22:09:12.591Z,196.02
2022-10-16T22:11:39.133Z,196.88
2022-10-16T22:14:12.836Z,198.38
2022-10-16T22:16:39.759Z,210.00
2022-10-16T22:19:09.596Z,233.52
2022-10-16T22:21:38.346Z,239.02
2022-10-16T22:24:06.333Z,240.27
2022-10-16T22:26:33.617Z,220.18
2022-10-16T22:29:00.235Z,228.23
2022-10-16T22:31:26.820Z,232.20
2022-10-16T22:33:58.472Z,236.20
2022-10-16T22:36:26.251Z,221.45
2022-10-16T22:38:53.405Z,221.55
2022-10-16T22:41:21.355Z,218.82
2022-10-16T22:43:49.431Z,230.85
2022-10-16T22:46:19.168Z,222.18
2022-10-16T22:48:45.979Z,225.13
2022-10-16T22:51:17.213Z,223.73
2022-10-16T22:53:44.904Z,235.23
2022-10-16T22:56:12.072Z,236.02
2022-10-16T22:58:38.642Z,224.15
2022-10-16T23:01:20.834Z,230.63
2022-10-16T23:03:47.615Z,223.00
2022-10-16T23:06:14.714Z,217.40
2022-10-16T23:08:41.263Z,209.93
2022-10-16T23:11:10.078Z,215.85
2022-10-16T23:13:38.131Z,225.00
2022-10-16T23:16:06.542Z,218.05
2022-10-16T23:18:36.937Z,226.70
2022-10-16T23:21:11.919Z,227.60
2022-10-16T23:23:39.330Z,216.05
2022-10-16T23:26:11.199Z,209.40
2022-10-16T23:28:38.200Z,201.98
2022-10-16T23:31:05.705Z,189.77
2022-10-16T23:33:33.751Z,185.88
2022-10-16T23:36:03.402Z,183.35
2022-10-16T23:38:29.899Z,183.23
2022-10-16T23:40:56.571Z,170.45
2022-10-16T23:43:23.061Z,162.95
2022-10-16T23:45:49.678Z,162.05
2022-10-16T23:48:16.180Z,172.27
2022-10-16T23:50:42.646Z,163.90
2022-10-16T23:53:10.191Z,163.80
2022-10-16T23:55:36.925Z,158.70
2022-10-16T23:58:03.415Z,159.23
